TimeMDT,TemperatureF,Dew PointF,Humidity,Sea Level PressureIn,VisibilityMPH,Wind Direction,Wind SpeedMPH,Gust SpeedMPH,PrecipitationIn,Events,Conditions,WindDirDegrees,DateUTC
12:56 AM,60.1,54.0,80,30.11,-9999.0,North,5.8,-,N/A,,Unknown,350,2013-06-29 06:56:00
1:56 AM,59.0,53.1,81,30.12,-9999.0,NNW,4.6,-,N/A,,Unknown,330,2013-06-29 07:56:00
2:56 AM,57.9,52.0,81,30.12,-9999.0,WNW,3.5,-,N/A,,Unknown,300,2013-06-29 08:56:00
3:56 AM,55.9,51.1,84,30.13,-9999.0,WNW,9.2,-,N/A,,Unknown,300,2013-06-29 09:56:00
4:56 AM,54.0,51.1,90,30.14,-9999.0,WNW,6.9,-,N/A,,Unknown,300,2013-06-29 10:56:00
5:56 AM,55.0,51.1,86,30.14,-9999.0,WNW,6.9,-,N/A,,Unknown,300,2013-06-29 11:56:00
6:56 AM,62.1,52.0,70,30.13,-9999.0,NW,8.1,-,N/A,,Unknown,310,2013-06-29 12:56:00
7:56 AM,68.0,52.0,56,30.13,-9999.0,NW,8.1,-,N/A,,Unknown,320,2013-06-29 13:56:00
8:56 AM,73.0,51.1,46,30.13,-9999.0,NNW,9.2,-,N/A,,Unknown,330,2013-06-29 14:56:00
9:56 AM,75.9,48.9,38,30.12,-9999.0,WNW,11.5,19.6,N/A,,Unknown,290,2013-06-29 15:56:00
10:56 AM,80.1,46.9,31,30.11,-9999.0,North,12.7,17.3,N/A,,Unknown,350,2013-06-29 16:56:00
11:56 AM,81.0,45.0,28,30.11,-9999.0,North,13.8,21.9,N/A,,Unknown,360,2013-06-29 17:56:00
12:56 PM,81.0,46.9,30,30.10,-9999.0,NNE,13.8,23.0,N/A,,Unknown,20,2013-06-29 18:56:00
1:56 PM,80.1,45.0,29,30.10,-9999.0,North,15.0,26.5,N/A,,Unknown,360,2013-06-29 19:56:00
2:56 PM,82.9,46.9,28,30.09,-9999.0,North,13.8,23.0,N/A,,Unknown,350,2013-06-29 20:56:00
3:56 PM,82.0,48.0,30,30.08,-9999.0,North,17.3,-,N/A,,Unknown,10,2013-06-29 21:56:00
4:56 PM,82.9,46.9,28,30.08,-9999.0,North,16.1,21.9,N/A,,Unknown,350,2013-06-29 22:56:00
5:56 PM,80.1,48.9,34,30.07,-9999.0,North,13.8,-,N/A,,Unknown,360,2013-06-29 23:56:00
6:56 PM,77.0,51.1,40,30.06,-9999.0,North,13.8,-,N/A,,Unknown,10,2013-06-30 00:56:00
7:56 PM,73.0,54.0,51,30.07,-9999.0,NNE,9.2,-,N/A,,Unknown,30,2013-06-30 01:56:00
8:56 PM,66.9,54.0,63,30.08,-9999.0,NE,5.8,-,N/A,,Unknown,50,2013-06-30 02:56:00
9:56 PM,64.9,54.0,68,30.10,-9999.0,ENE,4.6,-,N/A,,Unknown,60,2013-06-30 03:56:00
10:56 PM,62.1,53.1,72,30.11,-9999.0,NE,5.8,-,N/A,,Unknown,40,2013-06-30 04:56:00
11:56 PM,62.1,53.1,72,30.11,-9999.0,NE,3.5,-,N/A,,Unknown,40,2013-06-30 05:56:00